Time;durP1;ratioP1;P1;durP2;ratioP2;P2;SDS_P1;SDS_P2;PMS_P1;PMS_P2;Temp;Humidity;BMP_temperature;BMP_pressure;BME280_temperature;BME280_humidity;BME280_pressure;Samples;Min_cycle;Max_cycle;Signal;HPM_P1;HPM_P2
2022/03/03 00:00:42;;;;;;;;;;;;;;;10.14;27.54;99287.34;4500397;31;34277;-84
2022/03/03 00:03:09;;;;;;;;;;;;;;;9.75;27.97;99292.72;4499885;31;34434;-84
2022/03/03 00:05:36;;;;;;;;;;;;;;;9.91;27.81;99291.25;4497017;31;34284;-84
2022/03/03 00:08:04;;;;;;;;;;;;;;;10.05;27.67;99291.50;4495238;31;34886;-84
2022/03/03 00:10:31;;;;;;;;;;;;;;;10.14;27.54;99289.94;4500066;31;35161;-84
2022/03/03 00:12:58;;;;;;;;;;;;;;;9.70;27.93;99295.22;4485257;31;34631;-84
2022/03/03 00:15:26;;;;;;;;;;;;;;;9.77;27.92;99295.31;4495993;31;32879;-82
2022/03/03 00:17:53;;;;;;;;;;;;;;;9.95;27.72;99291.34;4490740;31;34786;-85
2022/03/03 00:20:20;;;;;;;;;;;;;;;9.88;27.43;99291.19;4500254;31;35149;-83
2022/03/03 00:22:47;;;;;;;;;;;;;;;9.49;28.18;99287.06;4500141;31;33747;-84
2022/03/03 00:25:17;;;;;;;;;;;;;;;9.52;27.84;99294.88;4486612;31;34247;-85
2022/03/03 00:27:44;;;;;;;;;;;;;;;9.58;28.01;99289.81;4484036;32;34168;-84
2022/03/03 00:30:11;;;;;;;;;;;;;;;9.83;27.69;99295.44;4484232;32;35108;-84
2022/03/03 00:32:40;;;;;;;;;;;;;;;9.83;27.69;99285.94;4468514;32;34302;-82
2022/03/03 00:35:08;;;;;;;;;;;;;;;9.37;28.27;99289.41;4462741;32;34061;-82
2022/03/03 00:37:36;;;;;;;;;;;;;;;9.41;27.93;99291.22;4469960;32;35002;-83
2022/03/03 00:40:04;;;;;;;;;;;;;;;9.31;27.97;99284.09;4483616;32;35230;-85
2022/03/03 00:42:31;;;;;;;;;;;;;;;9.06;28.49;99288.81;4484263;32;33711;-84
2022/03/03 00:44:58;;;;;;;;;;;;;;;9.08;28.49;99287.09;4470623;32;33954;-85
2022/03/03 00:47:26;;;;;;;;;;;;;;;8.44;29.79;99288.28;4483272;32;34016;-83
2022/03/03 00:49:54;;;;;;;;;;;;;;;8.66;30.00;99287.94;4498456;31;34378;-84
2022/03/03 00:52:22;;;;;;;;;;;;;;;8.78;29.79;99283.03;4487253;31;34510;-84
2022/03/03 00:54:49;;;;;;;;;;;;;;;8.78;29.59;99277.84;4477054;32;34356;-84
2022/03/03 00:57:17;;;;;;;;;;;;;;;8.90;29.53;99276.37;4491013;31;34074;-83
2022/03/03 00:59:44;;;;;;;;;;;;;;;9.10;29.44;99266.47;4498306;31;35337;-85
2022/03/03 01:02:11;;;;;;;;;;;;;;;9.09;29.67;99263.00;4496748;31;34359;-84
2022/03/03 01:04:39;;;;;;;;;;;;;;;9.34;29.04;99274.69;4499142;31;33262;-84
2022/03/03 01:07:06;;;;;;;;;;;;;;;9.27;29.23;99265.06;4499332;31;33921;-84
2022/03/03 01:09:33;;;;;;;;;;;;;;;9.51;28.95;99262.09;4499226;31;34033;-84
2022/03/03 01:12:00;;;;;;;;;;;;;;;9.39;28.88;99260.13;4499345;31;33531;-84
2022/03/03 01:14:28;;;;;;;;;;;;;;;9.21;29.06;99265.84;4485360;31;32834;-84
2022/03/03 01:16:55;;;;;;;;;;;;;;;9.21;29.13;99265.84;4491187;31;34116;-84
2022/03/03 01:19:22;;;;;;;;;;;;;;;9.27;28.73;99258.16;4493175;31;34383;-84
2022/03/03 01:21:49;;;;;;;;;;;;;;;9.21;28.60;99257.19;4499674;31;34020;-84
2022/03/03 01:24:17;;;;;;;;;;;;;;;9.44;28.30;99249.88;4497939;31;33476;-84
2022/03/03 01:26:44;;;;;;;;;;;;;;;9.30;28.51;99248.75;4499419;31;33956;-84
2022/03/03 01:29:12;;;;;;;;;;;;;;;9.49;28.60;99240.47;4499246;31;35369;-85
2022/03/03 01:31:39;;;;;;;;;;;;;;;9.47;28.42;99236.97;4499421;31;33958;-83
2022/03/03 01:34:07;;;;;;;;;;;;;;;9.34;28.80;99233.28;4498823;31;33308;-83
2022/03/03 01:36:34;;;;;;;;;;;;;;;9.32;28.65;99234.09;4499048;31;34992;-83
2022/03/03 01:39:02;;;;;;;;;;;;;;;9.23;28.75;99235.69;4499131;31;34583;-83
2022/03/03 01:41:30;;;;;;;;;;;;;;;9.19;29.03;99233.00;4498923;31;34257;-82
2022/03/03 01:43:57;;;;;;;;;;;;;;;9.17;29.05;99230.41;4499106;31;34893;-84
2022/03/03 01:46:24;;;;;;;;;;;;;;;9.15;28.84;99234.66;4498467;31;36459;-84
2022/03/03 01:48:52;;;;;;;;;;;;;;;9.29;28.75;99224.59;4492689;31;33962;-83
2022/03/03 01:51:19;;;;;;;;;;;;;;;9.25;28.69;99225.38;4497922;31;34198;-83
2022/03/03 01:53:46;;;;;;;;;;;;;;;9.36;28.51;99217.81;4498662;31;34386;-84
2022/03/03 01:56:13;;;;;;;;;;;;;;;9.37;28.99;99223.00;4498091;31;32746;-83
2022/03/03 01:58:41;;;;;;;;;;;;;;;9.42;28.95;99220.50;4498972;31;33910;-85
2022/03/03 02:01:08;;;;;;;;;;;;;;;9.24;29.30;99221.03;4498979;31;35324;-84
2022/03/03 02:03:36;;;;;;;;;;;;;;;9.22;29.40;99214.97;4499364;31;34065;-84
2022/03/03 02:06:03;;;;;;;;;;;;;;;9.33;29.03;99210.00;4498511;31;34815;-83
2022/03/03 02:08:30;;;;;;;;;;;;;;;9.28;29.29;99209.91;4497854;31;33892;-84
2022/03/03 02:10:58;;;;;;;;;;;;;;;9.29;29.30;99208.19;4498957;31;34062;-85
2022/03/03 02:13:25;;;;;;;;;;;;;;;9.33;29.26;99207.41;4498961;31;33549;-84
2022/03/03 02:15:53;;;;;;;;;;;;;;;9.21;29.62;99206.34;4498503;31;34107;-83
2022/03/03 02:18:21;;;;;;;;;;;;;;;9.25;29.55;99208.13;4497844;31;34467;-84
2022/03/03 02:20:48;;;;;;;;;;;;;;;9.39;29.45;99202.31;4499037;31;34653;-83
2022/03/03 02:23:18;;;;;;;;;;;;;;;9.35;29.47;99198.81;4498297;31;32992;-83
2022/03/03 02:25:46;;;;;;;;;;;;;;;9.26;29.59;99196.94;4498333;31;33678;-84
2022/03/03 02:28:13;;;;;;;;;;;;;;;9.10;29.88;99194.03;4484432;31;35191;-83
2022/03/03 02:30:41;;;;;;;;;;;;;;;9.31;29.46;99191.84;4498654;31;34055;-84
2022/03/03 02:33:08;;;;;;;;;;;;;;;9.33;29.46;99189.28;4498912;31;33512;-84
2022/03/03 02:35:35;;;;;;;;;;;;;;;9.34;29.49;99191.91;4498283;31;32503;-84
2022/03/03 02:38:02;;;;;;;;;;;;;;;9.31;29.43;99185.78;4498761;31;34276;-84
2022/03/03 02:40:30;;;;;;;;;;;;;;;9.35;29.50;99188.47;4498661;31;34370;-84
2022/03/03 02:42:57;;;;;;;;;;;;;;;9.32;29.36;99191.00;4499037;31;33603;-84
2022/03/03 02:45:24;;;;;;;;;;;;;;;9.45;29.42;99194.69;4498519;31;34078;-84
2022/03/03 02:47:52;;;;;;;;;;;;;;;9.39;29.46;99194.56;4498739;31;35386;-84
2022/03/03 02:50:22;;;;;;;;;;;;;;;9.24;29.80;99201.22;4498140;31;34147;-85
2022/03/03 02:52:49;;;;;;;;;;;;;;;9.36;29.85;99190.22;4493567;31;34289;-84
2022/03/03 02:55:17;;;;;;;;;;;;;;;9.43;29.72;99180.81;4498122;31;35223;-85
2022/03/03 02:57:53;;;;;;;;;;;;;;;9.42;29.47;99184.28;4498434;31;34550;-84
2022/03/03 03:00:28;;;;;;;;;;;;;;;9.37;29.72;99180.75;4498014;31;34411;-84
2022/03/03 03:02:55;;;;;;;;;;;;;;;9.33;29.84;99178.94;4490549;31;33198;-84
2022/03/03 03:05:23;;;;;;;;;;;;;;;9.44;29.67;99180.00;4498065;31;35004;-83
2022/03/03 03:07:50;;;;;;;;;;;;;;;9.42;29.38;99176.50;4498474;31;34300;-85
2022/03/03 03:10:17;;;;;;;;;;;;;;;9.25;29.78;99176.22;4498503;31;34145;-83
2022/03/03 03:12:45;;;;;;;;;;;;;;;9.33;29.57;99168.59;4498131;31;33440;-84
2022/03/03 03:15:12;;;;;;;;;;;;;;;9.24;29.56;99180.53;4498047;31;33681;-84
2022/03/03 03:17:39;;;;;;;;;;;;;;;9.26;29.54;99176.25;4498268;31;34266;-84
2022/03/03 03:20:07;;;;;;;;;;;;;;;9.19;29.77;99176.97;4499196;31;34430;-84
2022/03/03 03:22:35;;;;;;;;;;;;;;;9.18;29.69;99180.41;4485826;31;33509;-84
2022/03/03 03:25:03;;;;;;;;;;;;;;;8.98;30.01;99177.47;4499875;31;34278;-84
2022/03/03 03:27:31;;;;;;;;;;;;;;;9.20;29.86;99177.84;4500116;31;34315;-84
2022/03/03 03:29:59;;;;;;;;;;;;;;;9.12;29.86;99182.88;4500010;31;35003;-83
2022/03/03 03:32:26;;;;;;;;;;;;;;;9.16;29.86;99182.06;4499799;31;33465;-83
2022/03/03 03:34:53;;;;;;;;;;;;;;;8.98;30.11;99177.47;4499727;31;34511;-85
2022/03/03 03:37:20;;;;;;;;;;;;;;;9.17;29.59;99182.97;4500393;31;34942;-84
2022/03/03 03:39:48;;;;;;;;;;;;;;;9.10;29.64;99181.97;4500058;31;33687;-84
2022/03/03 03:42:15;;;;;;;;;;;;;;;9.12;29.67;99182.00;4499962;31;33516;-84
2022/03/03 03:44:42;;;;;;;;;;;;;;;9.12;29.72;99179.41;4499445;31;34017;-85
2022/03/03 03:47:10;;;;;;;;;;;;;;;9.07;29.77;99179.34;4499746;31;34426;-84
2022/03/03 03:49:38;;;;;;;;;;;;;;;8.94;30.35;99173.06;4499999;31;34163;-85
2022/03/03 03:52:05;;;;;;;;;;;;;;;9.12;29.89;99169.94;4499471;31;33140;-84
2022/03/03 03:54:32;;;;;;;;;;;;;;;9.19;29.72;99186.44;4499938;31;33849;-83
2022/03/03 03:56:59;;;;;;;;;;;;;;;9.22;29.67;99179.63;4500211;31;33922;-84
2022/03/03 03:59:27;;;;;;;;;;;;;;;8.98;30.22;99181.75;4500343;31;33936;-84
2022/03/03 04:01:54;;;;;;;;;;;;;;;8.97;30.14;99180.00;4499293;31;33661;-84
2022/03/03 04:04:22;;;;;;;;;;;;;;;9.04;29.91;99176.69;4499749;31;33977;-84
2022/03/03 04:06:49;;;;;;;;;;;;;;;9.15;29.74;99174.31;4499650;31;34404;-84
2022/03/03 04:09:16;;;;;;;;;;;;;;;9.00;29.85;99174.88;4499937;31;34443;-84
2022/03/03 04:11:43;;;;;;;;;;;;;;;8.92;30.21;99171.28;4499423;31;33447;-84
2022/03/03 04:14:10;;;;;;;;;;;;;;;8.79;30.56;99177.94;4499834;31;34175;-84
2022/03/03 04:16:38;;;;;;;;;;;;;;;8.85;30.22;99169.41;4499313;31;34899;-84
2022/03/03 04:19:05;;;;;;;;;;;;;;;8.94;30.50;99169.59;4499608;31;34826;-83
2022/03/03 04:21:32;;;;;;;;;;;;;;;8.66;30.75;99169.03;4499618;31;33116;-84
2022/03/03 04:23:59;;;;;;;;;;;;;;;8.44;31.14;99164.28;4500070;31;33890;-83
2022/03/03 04:26:27;;;;;;;;;;;;;;;8.46;31.12;99166.06;4499306;31;34231;-84
2022/03/03 04:28:54;;;;;;;;;;;;;;;8.44;30.92;99169.44;4499845;31;34349;-84
2022/03/03 04:31:22;;;;;;;;;;;;;;;8.56;30.68;99166.22;4498206;31;34154;-83
2022/03/03 04:33:49;;;;;;;;;;;;;;;8.33;31.35;99168.31;4485332;31;33832;-84
2022/03/03 04:36:16;;;;;;;;;;;;;;;8.45;31.00;99159.16;4499516;31;35236;-84
2022/03/03 04:38:45;;;;;;;;;;;;;;;8.50;30.63;99157.53;4499651;31;34153;-83
2022/03/03 04:41:13;;;;;;;;;;;;;;;8.48;30.84;99148.84;4499097;31;33479;-82
2022/03/03 04:43:40;;;;;;;;;;;;;;;8.41;30.91;99151.28;4499936;31;34285;-84
2022/03/03 04:46:08;;;;;;;;;;;;;;;8.44;30.81;99149.63;4498783;31;35395;-85
2022/03/03 04:48:35;;;;;;;;;;;;;;;8.34;30.62;99157.16;4498646;31;34249;-85
2022/03/03 04:51:03;;;;;;;;;;;;;;;8.34;30.68;99157.16;4499519;31;34027;-83
2022/03/03 04:53:30;;;;;;;;;;;;;;;8.50;30.54;99157.53;4487638;31;34151;-84
2022/03/03 04:55:57;;;;;;;;;;;;;;;8.45;30.29;99158.28;4491213;31;35017;-84
2022/03/03 04:58:25;;;;;;;;;;;;;;;8.39;30.27;99161.59;4498253;31;33866;-85
2022/03/03 05:00:52;;;;;;;;;;;;;;;8.27;30.46;99159.59;4486059;31;33137;-84
2022/03/03 05:03:20;;;;;;;;;;;;;;;8.05;30.89;99165.97;4499622;31;35264;-85
2022/03/03 05:05:47;;;;;;;;;;;;;;;8.15;30.71;99161.03;4498956;31;33559;-84
2022/03/03 05:08:14;;;;;;;;;;;;;;;8.31;30.44;99157.09;4499412;31;33755;-84
2022/03/03 05:10:42;;;;;;;;;;;;;;;8.27;30.54;99153.56;4499053;31;34055;-85
2022/03/03 05:13:09;;;;;;;;;;;;;;;8.27;30.74;99156.13;4499449;31;34885;-84
2022/03/03 05:15:37;;;;;;;;;;;;;;;8.18;30.64;99158.50;4498779;31;34189;-84
2022/03/03 05:18:04;;;;;;;;;;;;;;;8.02;30.89;99158.16;4498989;31;34398;-83
2022/03/03 05:20:32;;;;;;;;;;;;;;;8.14;31.02;99148.94;4499228;31;33976;-84
2022/03/03 05:22:59;;;;;;;;;;;;;;;8.02;31.05;99157.28;4499487;31;34200;-84
2022/03/03 05:25:26;;;;;;;;;;;;;;;8.16;30.70;99155.03;4498334;31;34322;-82
2022/03/03 05:27:53;;;;;;;;;;;;;;;8.16;30.63;99153.31;4499411;31;34904;-83
2022/03/03 05:30:20;;;;;;;;;;;;;;;8.04;31.22;99147.87;4491327;31;33323;-83
2022/03/03 05:32:49;;;;;;;;;;;;;;;8.08;31.03;99152.28;4495239;31;34344;-85
2022/03/03 05:35:18;;;;;;;;;;;;;;;8.04;31.21;99153.06;4499061;31;34835;-83
2022/03/03 05:37:45;;;;;;;;;;;;;;;8.12;30.95;99151.50;4498830;31;32874;-83
2022/03/03 05:40:13;;;;;;;;;;;;;;;8.14;30.74;99154.13;4498208;31;33736;-83
2022/03/03 05:42:40;;;;;;;;;;;;;;;8.02;31.33;99154.72;4499811;31;34380;-85
2022/03/03 05:45:07;;;;;;;;;;;;;;;7.75;31.72;99157.53;4501327;31;34347;-85
2022/03/03 05:47:35;;;;;;;;;;;;;;;7.75;31.90;99157.53;4498378;31;34134;-84
2022/03/03 05:50:03;;;;;;;;;;;;;;;7.91;31.49;99153.59;4493413;31;33144;-84
2022/03/03 05:52:31;;;;;;;;;;;;;;;7.84;31.78;99151.72;4485809;31;33965;-84
2022/03/03 05:54:59;;;;;;;;;;;;;;;8.27;30.90;99153.56;4487968;31;34163;-84
2022/03/03 05:57:32;;;;;;;;;;;;;;;7.89;31.90;99156.16;4486278;31;34296;-83
2022/03/03 06:00:07;;;;;;;;;;;;;;;7.94;31.76;99157.13;4496177;31;32850;-83
2022/03/03 06:02:44;;;;;;;;;;;;;;;7.18;33.21;99173.28;4499402;31;33760;-82
2022/03/03 06:05:13;;;;;;;;;;;;;;;7.73;32.46;99154.94;4497830;31;35343;-83
2022/03/03 06:07:41;;;;;;;;;;;;;;;8.00;31.91;99162.44;4499622;31;33950;-83
2022/03/03 06:10:08;;;;;;;;;;;;;;;7.94;32.05;99164.88;4497679;31;33291;-83
2022/03/03 06:12:47;;;;;;;;;;;;;;;7.87;32.35;99162.09;4498467;31;34131;-84
2022/03/03 06:15:14;;;;;;;;;;;;;;;7.73;32.74;99172.13;4499464;31;33909;-84
2022/03/03 06:17:44;;;;;;;;;;;;;;;8.13;32.32;99166.16;4498472;31;33609;-83
2022/03/03 06:20:11;;;;;;;;;;;;;;;8.48;31.62;99168.66;4497681;31;34215;-84
2022/03/03 06:22:39;;;;;;;;;;;;;;;8.46;31.77;99160.03;4499273;31;34222;-84
2022/03/03 06:25:06;;;;;;;;;;;;;;;8.08;32.19;99162.59;4499182;31;34540;-83
2022/03/03 06:27:34;;;;;;;;;;;;;;;8.66;31.26;99158.72;4499149;31;34118;-83
2022/03/03 06:30:01;;;;;;;;;;;;;;;8.86;31.03;99158.22;4498804;31;33353;-84
2022/03/03 06:32:29;;;;;;;;;;;;;;;8.61;31.27;99157.75;4497597;31;34759;-84
2022/03/03 06:34:56;;;;;;;;;;;;;;;8.85;30.90;99166.84;4495998;31;35889;-84
2022/03/03 06:37:23;;;;;;;;;;;;;;;9.13;30.43;99163.03;4498226;31;34503;-85
2022/03/03 06:39:51;;;;;;;;;;;;;;;9.24;30.12;99166.69;4498847;31;33073;-85
2022/03/03 06:42:18;;;;;;;;;;;;;;;8.77;30.91;99166.69;4498771;31;33627;-85
2022/03/03 06:44:45;;;;;;;;;;;;;;;9.03;30.00;99174.94;4498932;31;34181;-85
2022/03/03 06:47:13;;;;;;;;;;;;;;;8.54;30.69;99184.31;4497513;31;35087;-84
2022/03/03 06:49:40;;;;;;;;;;;;;;;7.62;32.52;99189.91;4498868;31;33296;-84
2022/03/03 06:52:08;;;;;;;;;;;;;;;7.96;32.66;99189.03;4498885;31;33939;-84
2022/03/03 06:54:35;;;;;;;;;;;;;;;8.04;32.03;99187.47;4497925;31;34322;-85
2022/03/03 06:57:02;;;;;;;;;;;;;;;7.73;31.80;99195.34;4498432;31;34103;-84
2022/03/03 06:59:33;;;;;;;;;;;;;;;8.17;31.52;99187.75;4498799;31;33155;-84
2022/03/03 07:02:01;;;;;;;;;;;;;;;8.74;30.52;99175.25;4492238;31;34128;-83
2022/03/03 07:04:29;;;;;;;;;;;;;;;8.12;31.58;99189.38;4482964;32;34068;-85
2022/03/03 07:06:56;;;;;;;;;;;;;;;7.92;31.92;99186.34;4482446;32;34014;-84
2022/03/03 07:09:24;;;;;;;;;;;;;;;7.26;32.62;99195.00;4493616;31;33108;-84
2022/03/03 07:11:51;;;;;;;;;;;;;;;6.39;34.84;99187.41;4496686;31;32647;-85
2022/03/03 07:14:19;;;;;;;;;;;;;;;7.65;32.73;99191.69;4498617;31;35020;-86
2022/03/03 07:16:52;;;;;;;;;;;;;;;7.89;32.52;99181.09;4498664;31;34974;-86
2022/03/03 07:19:25;;;;;;;;;;;;;;;6.99;34.52;99200.28;4498483;31;33676;-84
2022/03/03 07:22:01;;;;;;;;;;;;;;;8.62;32.04;99181.88;4498496;31;35118;-84
2022/03/03 07:24:29;;;;;;;;;;;;;;;8.81;31.84;99183.13;4497151;31;35001;-83
2022/03/03 07:27:01;;;;;;;;;;;;;;;7.88;33.36;99190.56;4485889;31;34197;-85
2022/03/03 07:29:29;;;;;;;;;;;;;;;7.11;34.94;99197.16;4482562;32;33731;-84
2022/03/03 07:31:57;;;;;;;;;;;;;;;8.78;31.87;99189.97;4482928;31;33729;-84
2022/03/03 07:34:26;;;;;;;;;;;;;;;8.93;31.85;99188.53;4498407;31;35116;-84
2022/03/03 07:36:55;;;;;;;;;;;;;;;9.35;30.96;99179.81;4486568;31;34832;-85
2022/03/03 07:39:23;;;;;;;;;;;;;;;9.75;30.28;99178.81;4495999;31;33726;-85
2022/03/03 07:41:50;;;;;;;;;;;;;;;9.77;30.39;99181.41;4496496;31;33985;-85
2022/03/03 07:44:19;;;;;;;;;;;;;;;10.21;29.95;99175.19;4491416;31;35355;-82
2022/03/03 07:46:47;;;;;;;;;;;;;;;10.06;30.32;99171.50;4490101;31;34334;-85
2022/03/03 07:49:14;;;;;;;;;;;;;;;10.17;30.03;99163.03;4497656;31;34287;-83
2022/03/03 07:51:41;;;;;;;;;;;;;;;9.98;30.40;99166.22;4492606;31;34208;-83
2022/03/03 07:54:09;;;;;;;;;;;;;;;8.88;32.05;99165.19;4497722;31;34251;-84
2022/03/03 07:56:39;;;;;;;;;;;;;;;9.63;31.41;99166.53;4497287;31;32678;-83
2022/03/03 07:59:11;;;;;;;;;;;;;;;9.05;31.68;99162.03;4496863;31;33942;-83
2022/03/03 08:01:40;;;;;;;;;;;;;;;8.14;33.31;99160.16;4496697;31;34266;-82
2022/03/03 08:04:10;;;;;;;;;;;;;;;9.09;31.85;99171.59;4497981;31;34325;-83
2022/03/03 08:06:37;;;;;;;;;;;;;;;8.43;33.32;99163.41;4499607;31;34145;-83
2022/03/03 08:09:04;;;;;;;;;;;;;;;9.23;31.82;99155.47;4499100;31;33380;-83
2022/03/03 08:11:31;;;;;;;;;;;;;;;8.11;33.45;99152.34;4498731;31;33943;-83
2022/03/03 08:13:58;;;;;;;;;;;;;;;7.98;34.28;99165.81;4499256;31;34296;-82
2022/03/03 08:16:27;;;;;;;;;;;;;;;8.76;32.93;99165.81;4500482;31;34474;-83
2022/03/03 08:19:00;;;;;;;;;;;;;;;8.38;33.69;99164.16;4498512;31;34451;-83
2022/03/03 08:21:27;;;;;;;;;;;;;;;8.20;34.04;99162.00;4498748;31;34146;-83
2022/03/03 08:23:55;;;;;;;;;;;;;;;7.40;35.51;99167.00;4499790;31;34186;-83
2022/03/03 08:26:22;;;;;;;;;;;;;;;8.78;33.56;99163.25;4499878;31;33931;-83
2022/03/03 08:28:49;;;;;;;;;;;;;;;8.15;34.42;99163.63;4500078;31;33247;-83
2022/03/03 08:31:17;;;;;;;;;;;;;;;8.58;33.44;99159.41;4499955;31;33186;-83
2022/03/03 08:33:55;;;;;;;;;;;;;;;8.65;33.33;99156.09;4498423;31;34232;-83
2022/03/03 08:36:44;;;;;;;;;;;;;;;7.61;35.08;99154.59;4498499;31;34900;-83
2022/03/03 08:39:13;;;;;;;;;;;;;;;7.48;35.53;99165.47;4499801;31;33233;-84
2022/03/03 08:41:41;;;;;;;;;;;;;;;8.46;33.52;99152.28;4499763;31;33953;-82
2022/03/03 08:44:09;;;;;;;;;;;;;;;7.76;34.79;99157.56;4499803;31;35217;-83
2022/03/03 08:46:37;;;;;;;;;;;;;;;7.85;34.93;99156.91;4499686;31;34355;-84
2022/03/03 08:49:06;;;;;;;;;;;;;;;7.70;35.23;99151.41;4498587;31;32818;-83
2022/03/03 08:51:33;;;;;;;;;;;;;;;7.91;34.45;99148.44;4498417;31;35091;-83
2022/03/03 08:54:01;;;;;;;;;;;;;;;9.29;32.99;99140.94;4499769;31;35230;-83
2022/03/03 08:56:28;;;;;;;;;;;;;;;9.67;32.39;99137.25;4499856;31;34832;-84
2022/03/03 08:58:55;;;;;;;;;;;;;;;10.50;30.55;99135.88;4498454;31;33224;-83
2022/03/03 09:01:22;;;;;;;;;;;;;;;9.91;31.04;99126.41;4498294;31;34841;-82
2022/03/03 09:03:49;;;;;;;;;;;;;;;8.27;33.50;99145.81;4499803;31;35290;-83
2022/03/03 09:06:17;;;;;;;;;;;;;;;7.55;35.30;99142.44;4499646;31;34181;-83
2022/03/03 09:08:45;;;;;;;;;;;;;;;7.49;35.61;99154.31;4499659;31;34450;-83
2022/03/03 09:11:12;;;;;;;;;;;;;;;9.06;33.50;99148.28;4499818;31;35024;-84
2022/03/03 09:13:39;;;;;;;;;;;;;;;9.09;32.71;99143.12;4499944;31;34056;-83
2022/03/03 09:16:13;;;;;;;;;;;;;;;7.92;34.88;99148.50;4499830;31;33788;-83
2022/03/03 09:18:40;;;;;;;;;;;;;;;8.60;33.97;99155.13;4499276;31;34102;-83
2022/03/03 09:21:07;;;;;;;;;;;;;;;9.57;32.62;99152.59;4498180;31;33805;-83
2022/03/03 09:23:36;;;;;;;;;;;;;;;10.33;30.97;99142.56;4499465;31;34389;-83
2022/03/03 09:26:04;;;;;;;;;;;;;;;10.50;31.14;99137.59;4499700;31;34070;-83
2022/03/03 09:28:31;;;;;;;;;;;;;;;10.83;30.15;99145.75;4499584;31;33411;-83
2022/03/03 09:30:58;;;;;;;;;;;;;;;10.17;31.02;99154.41;4499498;31;34217;-84
2022/03/03 09:33:26;;;;;;;;;;;;;;;9.86;31.93;99140.13;4499620;31;34085;-83
2022/03/03 09:35:53;;;;;;;;;;;;;;;9.37;32.98;99158.31;4498305;31;35042;-83
2022/03/03 09:38:21;;;;;;;;;;;;;;;9.59;32.34;99144.03;4499399;31;33505;-83
2022/03/03 09:40:48;;;;;;;;;;;;;;;9.18;33.06;99143.31;4498116;31;35084;-83
2022/03/03 09:43:15;;;;;;;;;;;;;;;9.67;32.23;99142.44;4499521;31;35112;-83
2022/03/03 09:45:43;;;;;;;;;;;;;;;10.46;31.17;99139.28;4499458;31;33807;-82
2022/03/03 09:48:16;;;;;;;;;;;;;;;10.64;30.88;99142.06;4499788;31;33874;-83
2022/03/03 09:50:43;;;;;;;;;;;;;;;11.59;29.25;99135.28;4499275;31;33891;-82
2022/03/03 09:53:11;;;;;;;;;;;;;;;11.34;29.98;99125.53;4499821;31;34902;-82
2022/03/03 09:55:39;;;;;;;;;;;;;;;10.83;30.62;99131.91;4499431;31;33032;-86
2022/03/03 09:58:06;;;;;;;;;;;;;;;10.13;31.42;99125.00;4499484;31;33347;-83
2022/03/03 10:00:37;;;;;;;;;;;;;;;9.83;31.66;99130.59;4499270;31;34114;-83
2022/03/03 10:03:09;;;;;;;;;;;;;;;10.62;30.20;99125.66;4499789;31;34730;-83
2022/03/03 10:05:52;;;;;;;;;;;;;;;10.21;30.79;99130.28;4499597;31;34947;-83
2022/03/03 10:08:21;;;;;;;;;;;;;;;10.40;30.38;99127.09;4499902;31;32766;-83
2022/03/03 10:10:49;;;;;;;;;;;;;;;10.75;30.79;99126.66;4498375;31;33879;-84
2022/03/03 10:13:18;;;;;;;;;;;;;;;10.56;30.57;99130.75;4499627;31;35096;-83
2022/03/03 10:15:50;;;;;;;;;;;;;;;9.99;31.19;99127.38;4499216;31;34930;-83
2022/03/03 10:18:18;;;;;;;;;;;;;;;10.82;29.94;99127.59;4498291;31;33369;-83
2022/03/03 10:20:45;;;;;;;;;;;;;;;10.70;30.45;99131.78;4497617;31;33825;-82
2022/03/03 10:23:12;;;;;;;;;;;;;;;10.78;29.59;99123.22;4499076;31;34968;-84
2022/03/03 10:25:41;;;;;;;;;;;;;;;10.60;30.51;99124.75;4499223;31;34595;-83
2022/03/03 10:28:17;;;;;;;;;;;;;;;10.20;31.63;99129.41;4498643;31;34572;-83
2022/03/03 10:30:48;;;;;;;;;;;;;;;10.42;30.88;99127.13;4497385;31;34058;-82
2022/03/03 10:33:16;;;;;;;;;;;;;;;9.63;31.87;99127.72;4497799;31;34528;-83
2022/03/03 10:35:56;;;;;;;;;;;;;;;10.23;31.21;99129.47;4497616;31;34378;-82
2022/03/03 10:38:23;;;;;;;;;;;;;;;11.84;29.12;99112.09;4498091;31;33222;-82
2022/03/03 10:40:51;;;;;;;;;;;;;;;10.59;30.80;99125.59;4499375;31;33545;-83
2022/03/03 10:43:18;;;;;;;;;;;;;;;11.75;29.31;99101.63;4498922;31;34130;-83
2022/03/03 10:45:55;;;;;;;;;;;;;;;11.28;30.18;99107.28;4498827;31;35227;-83
2022/03/03 10:48:23;;;;;;;;;;;;;;;12.46;28.22;99093.37;4498857;31;34405;-82
2022/03/03 10:50:51;;;;;;;;;;;;;;;12.56;28.38;99096.88;4498808;31;34831;-83
2022/03/03 10:53:19;;;;;;;;;;;;;;;11.29;29.06;99096.06;4498058;31;35085;-82
2022/03/03 10:56:00;;;;;;;;;;;;;;;11.84;28.63;99083.53;4498770;31;34863;-83
2022/03/03 10:58:47;;;;;;;;;;;;;;;12.18;28.50;99088.06;4498979;31;34030;-85
2022/03/03 11:01:15;;;;;;;;;;;;;;;11.37;28.68;99092.69;4497131;31;34974;-83
2022/03/03 11:03:49;;;;;;;;;;;;;;;11.38;28.93;99089.22;4498744;31;34289;-83
2022/03/03 11:06:20;;;;;;;;;;;;;;;11.96;29.31;99081.00;4497401;31;34799;-83
2022/03/03 11:08:48;;;;;;;;;;;;;;;11.07;30.05;99076.84;4498741;31;32712;-84
2022/03/03 11:11:15;;;;;;;;;;;;;;;11.77;29.17;99077.38;4498583;31;34538;-83
2022/03/03 11:13:43;;;;;;;;;;;;;;;12.01;28.69;99075.81;4498741;31;34373;-83
2022/03/03 11:16:10;;;;;;;;;;;;;;;11.14;29.61;99068.28;4498894;31;34101;-83
2022/03/03 11:18:38;;;;;;;;;;;;;;;11.82;28.63;99057.53;4497129;31;33013;-83
2022/03/03 11:21:05;;;;;;;;;;;;;;;11.71;28.83;99051.41;4498355;31;33892;-82
2022/03/03 11:23:37;;;;;;;;;;;;;;;12.36;27.84;99044.81;4498535;31;34197;-83
2022/03/03 11:26:04;;;;;;;;;;;;;;;12.34;28.29;99054.34;4497267;31;33469;-83
2022/03/03 11:28:35;;;;;;;;;;;;;;;12.02;28.98;99052.47;4497170;31;33075;-83
2022/03/03 11:31:21;;;;;;;;;;;;;;;10.67;30.70;99061.75;4498492;31;34138;-86
2022/03/03 11:33:48;;;;;;;;;;;;;;;11.54;29.32;99042.63;4498055;31;35075;-83
2022/03/03 11:36:20;;;;;;;;;;;;;;;12.28;28.18;99049.13;4498314;31;34964;-83
2022/03/03 11:38:54;;;;;;;;;;;;;;;13.09;26.97;99039.75;4498390;31;34520;-82
2022/03/03 11:41:25;;;;;;;;;;;;;;;13.02;28.26;99045.81;4498505;31;33787;-82
2022/03/03 11:43:59;;;;;;;;;;;;;;;11.95;28.46;99040.31;4499070;31;34492;-83
2022/03/03 11:46:43;;;;;;;;;;;;;;;12.06;28.08;99024.78;4500231;31;35056;-83
2022/03/03 11:49:11;;;;;;;;;;;;;;;12.68;28.52;99024.09;4500354;31;32980;-83
2022/03/03 11:51:38;;;;;;;;;;;;;;;13.06;27.30;99024.13;4500192;31;33614;-83
2022/03/03 11:54:28;;;;;;;;;;;;;;;10.91;30.68;99029.12;4500428;31;34885;-85
2022/03/03 11:57:04;;;;;;;;;;;;;;;12.37;28.69;99021.41;4500087;31;35061;-82
2022/03/03 11:59:35;;;;;;;;;;;;;;;12.80;28.26;99012.84;4500538;31;33115;-83
2022/03/03 12:02:03;;;;;;;;;;;;;;;13.13;26.89;99012.88;4498460;31;34267;-83
2022/03/03 12:04:31;;;;;;;;;;;;;;;13.47;27.32;99007.66;4500296;31;33729;-86
2022/03/03 12:06:58;;;;;;;;;;;;;;;13.26;27.32;99002.47;4500275;31;33795;-83
2022/03/03 12:09:26;;;;;;;;;;;;;;;13.59;26.40;99001.56;4499107;31;33049;-82
2022/03/03 12:12:07;;;;;;;;;;;;;;;13.34;26.53;98995.53;4500456;31;35148;-83
2022/03/03 12:14:35;;;;;;;;;;;;;;;13.24;26.51;98996.41;4500257;31;34375;-84
2022/03/03 12:17:21;;;;;;;;;;;;;;;13.60;26.37;98992.91;4500242;31;35125;-82
2022/03/03 12:19:48;;;;;;;;;;;;;;;12.49;27.59;98991.12;4500324;31;33388;-83
2022/03/03 12:22:25;;;;;;;;;;;;;;;14.12;25.20;98988.34;4498737;31;34050;-83
2022/03/03 12:24:52;;;;;;;;;;;;;;;14.35;25.14;98976.94;4500131;31;35224;-83
2022/03/03 12:27:20;;;;;;;;;;;;;;;14.15;25.10;98981.41;4498744;31;34923;-82
2022/03/03 12:29:52;;;;;;;;;;;;;;;14.62;24.26;98972.47;4498859;31;33109;-83
2022/03/03 12:32:41;;;;;;;;;;;;;;;15.20;23.65;98975.50;4499946;31;33922;-83
2022/03/03 12:35:13;;;;;;;;;;;;;;;14.16;24.74;98989.22;4500023;31;34385;-83
2022/03/03 12:37:45;;;;;;;;;;;;;;;15.12;23.66;98976.47;4499925;31;34569;-86
2022/03/03 12:40:17;;;;;;;;;;;;;;;14.84;23.96;98968.84;4499927;31;33158;-83
2022/03/03 12:42:45;;;;;;;;;;;;;;;14.75;23.66;98974.13;4499790;31;34219;-83
2022/03/03 12:45:13;;;;;;;;;;;;;;;14.88;23.27;98973.16;4499661;31;34163;-83
2022/03/03 12:47:42;;;;;;;;;;;;;;;14.44;24.01;98974.31;4499704;31;33583;-83
2022/03/03 12:50:11;;;;;;;;;;;;;;;13.70;25.22;98975.50;4499962;31;33247;-84
2022/03/03 12:52:39;;;;;;;;;;;;;;;14.04;24.96;98974.50;4497781;31;34165;-83
2022/03/03 12:55:07;;;;;;;;;;;;;;;14.14;24.77;98974.47;4498542;31;35184;-85
2022/03/03 12:57:35;;;;;;;;;;;;;;;14.91;24.58;98960.09;4473527;31;789789;-84
2022/03/03 13:00:05;;;;;;;;;;;;;;;14.30;25.22;98956.13;4499604;31;33784;-83
2022/03/03 13:02:51;;;;;;;;;;;;;;;13.83;25.13;98959.81;4499950;31;34178;-83